sensor_id;sensor_type;location;lat;lon;timestamp;P1;durP1;ratioP1;P2;durP2;ratioP2
7843;SDS011;3967;48.702;9.326;2023-07-31T00:01:35;1.67;;;0.90;;
7843;SDS011;3967;48.702;9.326;2023-07-31T00:04:01;1.33;;;1.17;;
7843;SDS011;3967;48.702;9.326;2023-07-31T00:06:29;2.40;;;1.20;;
7843;SDS011;3967;48.702;9.326;2023-07-31T00:08:55;2.17;;;1.20;;
7843;SDS011;3967;48.702;9.326;2023-07-31T00:11:22;1.63;;;1.40;;
7843;SDS011;3967;48.702;9.326;2023-07-31T00:13:49;3.27;;;1.30;;
7843;SDS011;3967;48.702;9.326;2023-07-31T00:16:16;2.17;;;1.00;;
7843;SDS011;3967;48.702;9.326;2023-07-31T00:18:43;1.87;;;1.10;;
7843;SDS011;3967;48.702;9.326;2023-07-31T00:21:09;2.90;;;1.07;;
7843;SDS011;3967;48.702;9.326;2023-07-31T00:23:36;3.33;;;1.20;;
7843;SDS011;3967;48.702;9.326;2023-07-31T00:26:03;2.37;;;1.10;;
7843;SDS011;3967;48.702;9.326;2023-07-31T00:28:30;3.07;;;1.10;;
7843;SDS011;3967;48.702;9.326;2023-07-31T00:30:56;1.67;;;0.90;;
7843;SDS011;3967;48.702;9.326;2023-07-31T00:33:23;2.77;;;1.03;;
7843;SDS011;3967;48.702;9.326;2023-07-31T00:35:50;4.03;;;1.00;;
7843;SDS011;3967;48.702;9.326;2023-07-31T00:38:17;2.87;;;1.20;;
7843;SDS011;3967;48.702;9.326;2023-07-31T00:40:43;2.10;;;1.23;;
7843;SDS011;3967;48.702;9.326;2023-07-31T00:43:10;1.43;;;1.10;;
7843;SDS011;3967;48.702;9.326;2023-07-31T00:45:37;2.37;;;1.10;;
7843;SDS011;3967;48.702;9.326;2023-07-31T00:48:04;1.97;;;1.20;;
7843;SDS011;3967;48.702;9.326;2023-07-31T00:50:32;2.40;;;1.07;;
7843;SDS011;3967;48.702;9.326;2023-07-31T00:53:00;1.40;;;1.10;;
7843;SDS011;3967;48.702;9.326;2023-07-31T00:55:27;1.57;;;1.00;;
7843;SDS011;3967;48.702;9.326;2023-07-31T00:57:54;2.03;;;1.23;;
7843;SDS011;3967;48.702;9.326;2023-07-31T01:00:21;2.70;;;1.33;;
7843;SDS011;3967;48.702;9.326;2023-07-31T01:02:49;1.50;;;1.30;;
7843;SDS011;3967;48.702;9.326;2023-07-31T01:05:21;3.27;;;1.20;;
7843;SDS011;3967;48.702;9.326;2023-07-31T01:10:35;1.90;;;1.10;;
7843;SDS011;3967;48.702;9.326;2023-07-31T01:13:12;2.13;;;1.10;;
7843;SDS011;3967;48.702;9.326;2023-07-31T01:15:39;2.50;;;1.20;;
7843;SDS011;3967;48.702;9.326;2023-07-31T01:18:06;1.77;;;1.10;;
7843;SDS011;3967;48.702;9.326;2023-07-31T01:20:33;2.07;;;1.20;;
7843;SDS011;3967;48.702;9.326;2023-07-31T01:25:56;1.37;;;1.13;;
7843;SDS011;3967;48.702;9.326;2023-07-31T01:31:14;1.60;;;0.97;;
7843;SDS011;3967;48.702;9.326;2023-07-31T01:33:44;4.27;;;1.40;;
7843;SDS011;3967;48.702;9.326;2023-07-31T01:36:12;2.20;;;1.13;;
7843;SDS011;3967;48.702;9.326;2023-07-31T01:38:39;1.57;;;1.10;;
7843;SDS011;3967;48.702;9.326;2023-07-31T01:41:06;2.33;;;1.10;;
7843;SDS011;3967;48.702;9.326;2023-07-31T01:43:32;1.90;;;1.20;;
7843;SDS011;3967;48.702;9.326;2023-07-31T01:45:59;2.20;;;1.20;;
7843;SDS011;3967;48.702;9.326;2023-07-31T01:48:26;1.70;;;0.97;;
7843;SDS011;3967;48.702;9.326;2023-07-31T01:50:52;2.23;;;1.10;;
7843;SDS011;3967;48.702;9.326;2023-07-31T01:53:19;4.23;;;1.37;;
7843;SDS011;3967;48.702;9.326;2023-07-31T01:55:46;1.37;;;1.10;;
7843;SDS011;3967;48.702;9.326;2023-07-31T01:58:13;1.73;;;0.90;;
7843;SDS011;3967;48.702;9.326;2023-07-31T02:00:39;2.40;;;1.40;;
7843;SDS011;3967;48.702;9.326;2023-07-31T02:03:06;1.63;;;1.03;;
7843;SDS011;3967;48.702;9.326;2023-07-31T02:05:33;2.23;;;1.10;;
7843;SDS011;3967;48.702;9.326;2023-07-31T02:08:00;2.63;;;1.30;;
7843;SDS011;3967;48.702;9.326;2023-07-31T02:10:29;1.30;;;1.00;;
7843;SDS011;3967;48.702;9.326;2023-07-31T02:12:56;1.33;;;1.00;;
7843;SDS011;3967;48.702;9.326;2023-07-31T02:15:23;3.20;;;1.13;;
7843;SDS011;3967;48.702;9.326;2023-07-31T02:17:50;1.60;;;1.20;;
7843;SDS011;3967;48.702;9.326;2023-07-31T02:20:17;2.00;;;1.60;;
7843;SDS011;3967;48.702;9.326;2023-07-31T02:22:44;1.50;;;1.10;;
7843;SDS011;3967;48.702;9.326;2023-07-31T02:25:10;1.77;;;1.00;;
7843;SDS011;3967;48.702;9.326;2023-07-31T02:27:37;1.53;;;1.10;;
7843;SDS011;3967;48.702;9.326;2023-07-31T02:30:04;3.47;;;1.30;;
7843;SDS011;3967;48.702;9.326;2023-07-31T02:32:31;1.93;;;1.10;;
7843;SDS011;3967;48.702;9.326;2023-07-31T02:34:58;1.10;;;1.00;;
7843;SDS011;3967;48.702;9.326;2023-07-31T02:37:25;1.20;;;1.10;;
7843;SDS011;3967;48.702;9.326;2023-07-31T02:39:55;2.07;;;1.10;;
7843;SDS011;3967;48.702;9.326;2023-07-31T02:42:21;1.80;;;1.20;;
7843;SDS011;3967;48.702;9.326;2023-07-31T02:44:48;2.53;;;1.33;;
7843;SDS011;3967;48.702;9.326;2023-07-31T02:47:17;2.13;;;1.20;;
7843;SDS011;3967;48.702;9.326;2023-07-31T02:49:44;2.93;;;1.20;;
7843;SDS011;3967;48.702;9.326;2023-07-31T02:52:10;2.17;;;1.13;;
7843;SDS011;3967;48.702;9.326;2023-07-31T02:54:37;1.80;;;1.70;;
7843;SDS011;3967;48.702;9.326;2023-07-31T02:57:04;2.63;;;1.40;;
7843;SDS011;3967;48.702;9.326;2023-07-31T02:59:31;2.57;;;1.57;;
7843;SDS011;3967;48.702;9.326;2023-07-31T03:01:57;1.83;;;1.30;;
7843;SDS011;3967;48.702;9.326;2023-07-31T03:04:24;2.27;;;1.20;;
7843;SDS011;3967;48.702;9.326;2023-07-31T03:06:51;2.03;;;0.93;;
7843;SDS011;3967;48.702;9.326;2023-07-31T03:09:18;2.73;;;1.03;;
7843;SDS011;3967;48.702;9.326;2023-07-31T03:11:44;3.23;;;1.57;;
7843;SDS011;3967;48.702;9.326;2023-07-31T03:14:11;1.53;;;1.10;;
7843;SDS011;3967;48.702;9.326;2023-07-31T03:16:38;1.87;;;1.33;;
7843;SDS011;3967;48.702;9.326;2023-07-31T03:19:05;2.30;;;1.20;;
7843;SDS011;3967;48.702;9.326;2023-07-31T03:21:32;2.93;;;1.20;;
7843;SDS011;3967;48.702;9.326;2023-07-31T03:23:59;3.17;;;1.30;;
7843;SDS011;3967;48.702;9.326;2023-07-31T03:26:25;5.70;;;1.47;;
7843;SDS011;3967;48.702;9.326;2023-07-31T03:28:52;1.50;;;1.10;;
7843;SDS011;3967;48.702;9.326;2023-07-31T03:31:19;1.60;;;1.30;;
7843;SDS011;3967;48.702;9.326;2023-07-31T03:33:45;1.97;;;1.10;;
7843;SDS011;3967;48.702;9.326;2023-07-31T03:36:12;1.83;;;1.20;;
7843;SDS011;3967;48.702;9.326;2023-07-31T03:38:39;1.70;;;1.37;;
7843;SDS011;3967;48.702;9.326;2023-07-31T03:41:06;2.33;;;1.30;;
7843;SDS011;3967;48.702;9.326;2023-07-31T03:43:32;2.97;;;2.33;;
7843;SDS011;3967;48.702;9.326;2023-07-31T03:46:02;1.67;;;1.10;;
7843;SDS011;3967;48.702;9.326;2023-07-31T03:48:29;4.00;;;1.50;;
7843;SDS011;3967;48.702;9.326;2023-07-31T03:50:55;2.73;;;1.10;;
7843;SDS011;3967;48.702;9.326;2023-07-31T03:53:22;1.20;;;1.10;;
7843;SDS011;3967;48.702;9.326;2023-07-31T03:55:49;2.87;;;1.67;;
7843;SDS011;3967;48.702;9.326;2023-07-31T03:58:16;3.57;;;2.23;;
7843;SDS011;3967;48.702;9.326;2023-07-31T04:00:43;2.27;;;2.03;;
7843;SDS011;3967;48.702;9.326;2023-07-31T04:03:09;5.70;;;1.70;;
7843;SDS011;3967;48.702;9.326;2023-07-31T04:05:37;4.97;;;1.90;;
7843;SDS011;3967;48.702;9.326;2023-07-31T04:08:06;4.47;;;1.77;;
7843;SDS011;3967;48.702;9.326;2023-07-31T04:10:32;3.37;;;1.63;;
7843;SDS011;3967;48.702;9.326;2023-07-31T04:12:59;5.17;;;1.60;;
7843;SDS011;3967;48.702;9.326;2023-07-31T04:15:26;3.63;;;1.80;;
7843;SDS011;3967;48.702;9.326;2023-07-31T04:17:53;2.03;;;1.50;;
7843;SDS011;3967;48.702;9.326;2023-07-31T04:20:20;2.50;;;1.37;;
7843;SDS011;3967;48.702;9.326;2023-07-31T04:22:47;2.80;;;1.10;;
7843;SDS011;3967;48.702;9.326;2023-07-31T04:25:14;3.57;;;1.40;;
7843;SDS011;3967;48.702;9.326;2023-07-31T04:27:41;5.83;;;1.80;;
7843;SDS011;3967;48.702;9.326;2023-07-31T04:30:08;3.40;;;1.47;;
7843;SDS011;3967;48.702;9.326;2023-07-31T04:32:35;2.40;;;1.23;;
7843;SDS011;3967;48.702;9.326;2023-07-31T04:35:02;3.60;;;1.70;;
7843;SDS011;3967;48.702;9.326;2023-07-31T04:37:29;1.83;;;1.50;;
7843;SDS011;3967;48.702;9.326;2023-07-31T04:39:56;3.00;;;1.50;;
7843;SDS011;3967;48.702;9.326;2023-07-31T04:42:23;5.13;;;1.40;;
7843;SDS011;3967;48.702;9.326;2023-07-31T04:44:50;2.57;;;1.37;;
7843;SDS011;3967;48.702;9.326;2023-07-31T04:47:16;3.20;;;1.50;;
7843;SDS011;3967;48.702;9.326;2023-07-31T04:49:43;3.77;;;1.50;;
7843;SDS011;3967;48.702;9.326;2023-07-31T04:52:10;5.33;;;1.50;;
7843;SDS011;3967;48.702;9.326;2023-07-31T04:54:36;2.10;;;1.20;;
7843;SDS011;3967;48.702;9.326;2023-07-31T04:57:03;3.97;;;1.43;;
7843;SDS011;3967;48.702;9.326;2023-07-31T04:59:31;1.70;;;1.60;;
7843;SDS011;3967;48.702;9.326;2023-07-31T05:01:58;3.57;;;1.60;;
7843;SDS011;3967;48.702;9.326;2023-07-31T05:04:24;3.20;;;1.40;;
7843;SDS011;3967;48.702;9.326;2023-07-31T05:06:51;2.97;;;1.40;;
7843;SDS011;3967;48.702;9.326;2023-07-31T05:09:18;4.07;;;1.63;;
7843;SDS011;3967;48.702;9.326;2023-07-31T05:11:44;2.23;;;1.57;;
7843;SDS011;3967;48.702;9.326;2023-07-31T05:14:11;3.47;;;1.67;;
7843;SDS011;3967;48.702;9.326;2023-07-31T05:16:38;3.70;;;2.97;;
7843;SDS011;3967;48.702;9.326;2023-07-31T05:19:05;3.07;;;1.40;;
7843;SDS011;3967;48.702;9.326;2023-07-31T05:21:32;4.67;;;1.90;;
7843;SDS011;3967;48.702;9.326;2023-07-31T05:23:59;4.03;;;1.73;;
7843;SDS011;3967;48.702;9.326;2023-07-31T05:26:26;3.40;;;1.60;;
7843;SDS011;3967;48.702;9.326;2023-07-31T05:28:52;6.23;;;2.50;;
7843;SDS011;3967;48.702;9.326;2023-07-31T05:31:19;4.27;;;1.80;;
7843;SDS011;3967;48.702;9.326;2023-07-31T05:33:48;1.87;;;1.60;;
7843;SDS011;3967;48.702;9.326;2023-07-31T05:36:16;2.50;;;1.70;;
7843;SDS011;3967;48.702;9.326;2023-07-31T05:38:44;2.57;;;1.63;;
7843;SDS011;3967;48.702;9.326;2023-07-31T05:41:11;2.33;;;1.60;;
7843;SDS011;3967;48.702;9.326;2023-07-31T05:43:38;3.40;;;1.53;;
7843;SDS011;3967;48.702;9.326;2023-07-31T05:46:05;2.37;;;1.53;;
7843;SDS011;3967;48.702;9.326;2023-07-31T05:48:33;2.80;;;1.37;;
7843;SDS011;3967;48.702;9.326;2023-07-31T05:51:02;1.80;;;1.50;;
7843;SDS011;3967;48.702;9.326;2023-07-31T05:53:29;1.87;;;1.43;;
7843;SDS011;3967;48.702;9.326;2023-07-31T05:55:56;4.77;;;1.53;;
7843;SDS011;3967;48.702;9.326;2023-07-31T05:58:23;4.20;;;1.40;;
7843;SDS011;3967;48.702;9.326;2023-07-31T06:00:50;2.43;;;1.40;;
7843;SDS011;3967;48.702;9.326;2023-07-31T06:03:16;3.33;;;1.50;;
7843;SDS011;3967;48.702;9.326;2023-07-31T06:05:43;2.17;;;1.30;;
7843;SDS011;3967;48.702;9.326;2023-07-31T06:08:10;3.23;;;1.53;;
7843;SDS011;3967;48.702;9.326;2023-07-31T06:10:37;4.13;;;1.53;;
7843;SDS011;3967;48.702;9.326;2023-07-31T06:13:04;4.23;;;1.63;;
7843;SDS011;3967;48.702;9.326;2023-07-31T06:15:31;1.70;;;1.40;;
7843;SDS011;3967;48.702;9.326;2023-07-31T06:17:58;4.63;;;1.20;;
7843;SDS011;3967;48.702;9.326;2023-07-31T06:20:28;2.27;;;1.27;;
7843;SDS011;3967;48.702;9.326;2023-07-31T06:22:54;3.23;;;1.30;;
7843;SDS011;3967;48.702;9.326;2023-07-31T06:25:21;4.03;;;1.47;;
7843;SDS011;3967;48.702;9.326;2023-07-31T06:27:48;3.03;;;1.57;;
7843;SDS011;3967;48.702;9.326;2023-07-31T06:30:15;2.03;;;1.30;;
7843;SDS011;3967;48.702;9.326;2023-07-31T06:32:42;2.20;;;1.43;;
7843;SDS011;3967;48.702;9.326;2023-07-31T06:35:09;1.93;;;1.40;;
7843;SDS011;3967;48.702;9.326;2023-07-31T06:37:36;2.20;;;1.30;;
7843;SDS011;3967;48.702;9.326;2023-07-31T06:40:03;3.53;;;1.10;;
7843;SDS011;3967;48.702;9.326;2023-07-31T06:42:32;2.37;;;1.20;;
7843;SDS011;3967;48.702;9.326;2023-07-31T06:44:58;2.27;;;1.40;;
7843;SDS011;3967;48.702;9.326;2023-07-31T06:47:25;1.53;;;0.90;;
7843;SDS011;3967;48.702;9.326;2023-07-31T06:49:52;2.43;;;1.20;;
7843;SDS011;3967;48.702;9.326;2023-07-31T06:52:19;5.83;;;1.30;;
7843;SDS011;3967;48.702;9.326;2023-07-31T06:54:59;2.80;;;1.17;;
7843;SDS011;3967;48.702;9.326;2023-07-31T06:57:30;2.50;;;1.20;;
7843;SDS011;3967;48.702;9.326;2023-07-31T06:59:57;4.30;;;1.30;;
7843;SDS011;3967;48.702;9.326;2023-07-31T07:02:23;2.50;;;0.97;;
7843;SDS011;3967;48.702;9.326;2023-07-31T07:04:50;4.10;;;1.20;;
7843;SDS011;3967;48.702;9.326;2023-07-31T07:07:17;6.07;;;2.00;;
7843;SDS011;3967;48.702;9.326;2023-07-31T07:09:44;3.17;;;1.03;;
7843;SDS011;3967;48.702;9.326;2023-07-31T07:12:11;4.47;;;1.13;;
7843;SDS011;3967;48.702;9.326;2023-07-31T07:14:37;71.13;;;7.40;;
7843;SDS011;3967;48.702;9.326;2023-07-31T07:17:04;4.97;;;1.50;;
7843;SDS011;3967;48.702;9.326;2023-07-31T07:19:31;5.37;;;2.37;;
7843;SDS011;3967;48.702;9.326;2023-07-31T07:21:58;4.77;;;1.20;;
7843;SDS011;3967;48.702;9.326;2023-07-31T07:24:28;3.33;;;1.57;;
7843;SDS011;3967;48.702;9.326;2023-07-31T07:26:55;3.20;;;1.37;;
7843;SDS011;3967;48.702;9.326;2023-07-31T07:29:21;9.03;;;1.83;;
7843;SDS011;3967;48.702;9.326;2023-07-31T07:31:48;10.83;;;2.30;;
7843;SDS011;3967;48.702;9.326;2023-07-31T07:34:15;2.83;;;1.40;;
7843;SDS011;3967;48.702;9.326;2023-07-31T07:36:42;12.40;;;2.20;;
7843;SDS011;3967;48.702;9.326;2023-07-31T07:39:10;4.70;;;1.33;;
7843;SDS011;3967;48.702;9.326;2023-07-31T07:41:37;3.23;;;1.20;;
7843;SDS011;3967;48.702;9.326;2023-07-31T07:44:04;2.63;;;1.23;;
7843;SDS011;3967;48.702;9.326;2023-07-31T07:46:31;4.00;;;1.30;;
7843;SDS011;3967;48.702;9.326;2023-07-31T07:48:58;5.70;;;2.07;;
7843;SDS011;3967;48.702;9.326;2023-07-31T07:51:25;2.93;;;1.40;;
7843;SDS011;3967;48.702;9.326;2023-07-31T07:53:51;3.30;;;1.40;;
7843;SDS011;3967;48.702;9.326;2023-07-31T07:56:18;3.50;;;1.83;;
7843;SDS011;3967;48.702;9.326;2023-07-31T07:58:47;7.47;;;2.03;;
7843;SDS011;3967;48.702;9.326;2023-07-31T08:01:16;9.93;;;2.27;;
7843;SDS011;3967;48.702;9.326;2023-07-31T08:03:43;19.13;;;3.50;;
7843;SDS011;3967;48.702;9.326;2023-07-31T08:06:10;2.77;;;1.53;;
7843;SDS011;3967;48.702;9.326;2023-07-31T08:08:37;2.33;;;1.00;;
7843;SDS011;3967;48.702;9.326;2023-07-31T08:11:04;12.20;;;2.00;;
7843;SDS011;3967;48.702;9.326;2023-07-31T08:13:31;3.90;;;1.63;;
7843;SDS011;3967;48.702;9.326;2023-07-31T08:15:58;4.00;;;1.93;;
7843;SDS011;3967;48.702;9.326;2023-07-31T08:18:24;5.37;;;1.43;;
7843;SDS011;3967;48.702;9.326;2023-07-31T08:20:51;5.47;;;1.57;;
7843;SDS011;3967;48.702;9.326;2023-07-31T08:23:18;359.47;;;52.10;;
7843;SDS011;3967;48.702;9.326;2023-07-31T08:25:45;658.57;;;95.40;;
7843;SDS011;3967;48.702;9.326;2023-07-31T08:28:12;265.53;;;38.40;;
7843;SDS011;3967;48.702;9.326;2023-07-31T08:30:39;24.63;;;4.50;;
7843;SDS011;3967;48.702;9.326;2023-07-31T08:33:06;7.87;;;2.00;;
7843;SDS011;3967;48.702;9.326;2023-07-31T08:35:33;3.53;;;1.60;;
7843;SDS011;3967;48.702;9.326;2023-07-31T08:38:00;8.97;;;1.83;;
7843;SDS011;3967;48.702;9.326;2023-07-31T08:40:26;4.27;;;1.43;;
7843;SDS011;3967;48.702;9.326;2023-07-31T08:42:55;2.50;;;1.50;;
7843;SDS011;3967;48.702;9.326;2023-07-31T08:45:28;3.30;;;1.30;;
7843;SDS011;3967;48.702;9.326;2023-07-31T08:47:56;30.03;;;4.90;;
7843;SDS011;3967;48.702;9.326;2023-07-31T08:50:24;4.40;;;1.83;;
7843;SDS011;3967;48.702;9.326;2023-07-31T08:52:51;2.57;;;1.40;;
7843;SDS011;3967;48.702;9.326;2023-07-31T08:55:21;2.17;;;1.40;;
7843;SDS011;3967;48.702;9.326;2023-07-31T08:57:51;4.97;;;2.60;;
7843;SDS011;3967;48.702;9.326;2023-07-31T09:00:19;2.47;;;1.50;;
7843;SDS011;3967;48.702;9.326;2023-07-31T09:03:02;2.77;;;1.30;;
7843;SDS011;3967;48.702;9.326;2023-07-31T09:05:35;3.93;;;1.43;;
7843;SDS011;3967;48.702;9.326;2023-07-31T09:08:02;6.23;;;1.73;;
7843;SDS011;3967;48.702;9.326;2023-07-31T09:10:31;10.13;;;1.47;;
7843;SDS011;3967;48.702;9.326;2023-07-31T09:12:58;5.53;;;1.93;;
7843;SDS011;3967;48.702;9.326;2023-07-31T09:15:25;4.07;;;1.63;;
7843;SDS011;3967;48.702;9.326;2023-07-31T09:18:04;1.37;;;1.20;;
7843;SDS011;3967;48.702;9.326;2023-07-31T09:20:32;3.03;;;1.60;;
7843;SDS011;3967;48.702;9.326;2023-07-31T09:23:04;4.50;;;2.03;;
7843;SDS011;3967;48.702;9.326;2023-07-31T09:25:34;3.37;;;1.23;;
7843;SDS011;3967;48.702;9.326;2023-07-31T09:28:06;3.17;;;1.43;;
7843;SDS011;3967;48.702;9.326;2023-07-31T09:30:44;4.17;;;1.60;;
7843;SDS011;3967;48.702;9.326;2023-07-31T09:33:15;4.47;;;1.97;;
7843;SDS011;3967;48.702;9.326;2023-07-31T09:35:43;8.27;;;1.90;;
7843;SDS011;3967;48.702;9.326;2023-07-31T09:38:11;3.40;;;1.60;;
7843;SDS011;3967;48.702;9.326;2023-07-31T09:40:44;3.50;;;1.40;;
7843;SDS011;3967;48.702;9.326;2023-07-31T09:43:13;3.67;;;1.50;;
7843;SDS011;3967;48.702;9.326;2023-07-31T09:45:44;1.97;;;1.47;;
7843;SDS011;3967;48.702;9.326;2023-07-31T09:50:40;3.20;;;1.30;;
7843;SDS011;3967;48.702;9.326;2023-07-31T09:53:08;3.43;;;1.70;;
7843;SDS011;3967;48.702;9.326;2023-07-31T09:55:36;3.23;;;1.87;;
7843;SDS011;3967;48.702;9.326;2023-07-31T09:58:07;2.40;;;1.20;;
7843;SDS011;3967;48.702;9.326;2023-07-31T10:00:35;2.73;;;1.63;;
7843;SDS011;3967;48.702;9.326;2023-07-31T10:03:07;2.87;;;1.47;;
7843;SDS011;3967;48.702;9.326;2023-07-31T10:05:39;4.17;;;1.73;;
7843;SDS011;3967;48.702;9.326;2023-07-31T10:08:09;11.07;;;1.97;;
7843;SDS011;3967;48.702;9.326;2023-07-31T10:10:40;3.27;;;1.40;;
7843;SDS011;3967;48.702;9.326;2023-07-31T10:13:09;3.60;;;1.43;;
7843;SDS011;3967;48.702;9.326;2023-07-31T10:15:36;2.10;;;1.50;;
7843;SDS011;3967;48.702;9.326;2023-07-31T10:18:03;6.57;;;1.60;;
7843;SDS011;3967;48.702;9.326;2023-07-31T10:20:32;4.07;;;1.80;;
7843;SDS011;3967;48.702;9.326;2023-07-31T10:23:00;4.73;;;1.90;;
7843;SDS011;3967;48.702;9.326;2023-07-31T10:25:27;3.03;;;1.60;;
7843;SDS011;3967;48.702;9.326;2023-07-31T10:27:54;2.03;;;1.38;;
7843;SDS011;3967;48.702;9.326;2023-07-31T10:30:27;4.28;;;1.63;;
7843;SDS011;3967;48.702;9.326;2023-07-31T10:32:56;3.55;;;1.52;;
7843;SDS011;3967;48.702;9.326;2023-07-31T10:35:23;2.30;;;1.38;;
7843;SDS011;3967;48.702;9.326;2023-07-31T10:37:51;4.15;;;1.88;;
7843;SDS011;3967;48.702;9.326;2023-07-31T10:40:19;3.75;;;1.80;;
7843;SDS011;3967;48.702;9.326;2023-07-31T10:42:54;3.15;;;1.60;;
7843;SDS011;3967;48.702;9.326;2023-07-31T10:48:02;3.92;;;1.77;;
7843;SDS011;3967;48.702;9.326;2023-07-31T10:50:31;2.42;;;1.70;;
7843;SDS011;3967;48.702;9.326;2023-07-31T10:52:59;4.03;;;1.63;;
7843;SDS011;3967;48.702;9.326;2023-07-31T10:58:15;1.63;;;1.38;;
7843;SDS011;3967;48.702;9.326;2023-07-31T11:00:45;4.35;;;1.83;;
7843;SDS011;3967;48.702;9.326;2023-07-31T11:03:13;3.53;;;1.73;;
7843;SDS011;3967;48.702;9.326;2023-07-31T11:10:44;5.45;;;2.17;;
7843;SDS011;3967;48.702;9.326;2023-07-31T11:13:11;5.43;;;1.67;;
7843;SDS011;3967;48.702;9.326;2023-07-31T11:15:38;6.65;;;2.30;;
7843;SDS011;3967;48.702;9.326;2023-07-31T11:18:05;6.15;;;1.90;;
7843;SDS011;3967;48.702;9.326;2023-07-31T11:20:35;5.35;;;1.67;;
7843;SDS011;3967;48.702;9.326;2023-07-31T11:23:04;3.67;;;1.90;;
7843;SDS011;3967;48.702;9.326;2023-07-31T11:25:33;4.78;;;1.48;;
7843;SDS011;3967;48.702;9.326;2023-07-31T11:28:19;1.98;;;1.30;;
7843;SDS011;3967;48.702;9.326;2023-07-31T11:30:46;3.22;;;1.52;;
7843;SDS011;3967;48.702;9.326;2023-07-31T11:33:13;1.73;;;1.45;;
7843;SDS011;3967;48.702;9.326;2023-07-31T11:35:45;2.72;;;1.50;;
7843;SDS011;3967;48.702;9.326;2023-07-31T11:38:32;2.67;;;1.52;;
7843;SDS011;3967;48.702;9.326;2023-07-31T11:41:03;2.95;;;1.50;;
7843;SDS011;3967;48.702;9.326;2023-07-31T11:43:31;2.53;;;1.70;;
7843;SDS011;3967;48.702;9.326;2023-07-31T11:45:59;2.22;;;2.03;;
7843;SDS011;3967;48.702;9.326;2023-07-31T11:48:31;2.63;;;1.83;;
7843;SDS011;3967;48.702;9.326;2023-07-31T11:51:00;2.63;;;1.70;;
7843;SDS011;3967;48.702;9.326;2023-07-31T11:53:41;2.65;;;2.08;;
7843;SDS011;3967;48.702;9.326;2023-07-31T11:56:16;8.68;;;2.22;;
7843;SDS011;3967;48.702;9.326;2023-07-31T11:58:48;4.80;;;2.10;;
7843;SDS011;3967;48.702;9.326;2023-07-31T12:01:17;4.57;;;2.50;;
7843;SDS011;3967;48.702;9.326;2023-07-31T12:03:47;4.28;;;2.22;;
7843;SDS011;3967;48.702;9.326;2023-07-31T12:06:16;3.00;;;1.90;;
7843;SDS011;3967;48.702;9.326;2023-07-31T12:08:42;2.88;;;1.70;;
7843;SDS011;3967;48.702;9.326;2023-07-31T12:11:10;2.40;;;1.42;;
7843;SDS011;3967;48.702;9.326;2023-07-31T12:13:36;9.25;;;2.22;;
7843;SDS011;3967;48.702;9.326;2023-07-31T12:16:03;2.28;;;1.70;;
7843;SDS011;3967;48.702;9.326;2023-07-31T12:18:34;2.65;;;2.00;;
7843;SDS011;3967;48.702;9.326;2023-07-31T12:21:03;2.65;;;1.70;;
7843;SDS011;3967;48.702;9.326;2023-07-31T12:23:32;2.75;;;1.75;;
7843;SDS011;3967;48.702;9.326;2023-07-31T12:28:30;2.38;;;1.63;;
7843;SDS011;3967;48.702;9.326;2023-07-31T12:30:57;2.67;;;1.80;;
7843;SDS011;3967;48.702;9.326;2023-07-31T12:33:35;3.00;;;1.52;;
7843;SDS011;3967;48.702;9.326;2023-07-31T12:36:07;3.25;;;1.70;;
7843;SDS011;3967;48.702;9.326;2023-07-31T12:38:35;4.43;;;2.08;;
7843;SDS011;3967;48.702;9.326;2023-07-31T12:41:02;4.68;;;2.30;;
7843;SDS011;3967;48.702;9.326;2023-07-31T12:43:30;2.33;;;1.80;;
7843;SDS011;3967;48.702;9.326;2023-07-31T12:45:56;10.48;;;2.65;;
7843;SDS011;3967;48.702;9.326;2023-07-31T12:48:23;10.80;;;2.10;;
7843;SDS011;3967;48.702;9.326;2023-07-31T12:50:50;9.93;;;2.25;;
7843;SDS011;3967;48.702;9.326;2023-07-31T12:53:17;4.18;;;1.63;;
7843;SDS011;3967;48.702;9.326;2023-07-31T12:55:44;7.72;;;1.73;;
7843;SDS011;3967;48.702;9.326;2023-07-31T12:58:11;2.60;;;1.60;;
7843;SDS011;3967;48.702;9.326;2023-07-31T13:00:37;3.10;;;1.75;;
7843;SDS011;3967;48.702;9.326;2023-07-31T13:03:04;4.53;;;2.10;;
7843;SDS011;3967;48.702;9.326;2023-07-31T13:05:31;5.70;;;1.83;;
7843;SDS011;3967;48.702;9.326;2023-07-31T13:07:58;27.42;;;2.38;;
7843;SDS011;3967;48.702;9.326;2023-07-31T13:10:25;3.63;;;1.50;;
7843;SDS011;3967;48.702;9.326;2023-07-31T13:12:53;4.50;;;1.55;;
7843;SDS011;3967;48.702;9.326;2023-07-31T13:15:20;3.00;;;1.88;;
7843;SDS011;3967;48.702;9.326;2023-07-31T13:17:47;3.83;;;1.77;;
7843;SDS011;3967;48.702;9.326;2023-07-31T13:20:13;3.92;;;1.58;;
7843;SDS011;3967;48.702;9.326;2023-07-31T13:22:40;4.50;;;1.80;;
7843;SDS011;3967;48.702;9.326;2023-07-31T13:25:11;2.22;;;1.75;;
7843;SDS011;3967;48.702;9.326;2023-07-31T13:27:38;7.25;;;1.80;;
7843;SDS011;3967;48.702;9.326;2023-07-31T13:30:05;3.15;;;1.48;;
7843;SDS011;3967;48.702;9.326;2023-07-31T13:32:32;3.60;;;1.70;;
7843;SDS011;3967;48.702;9.326;2023-07-31T13:34:59;5.45;;;2.08;;
7843;SDS011;3967;48.702;9.326;2023-07-31T13:37:26;3.72;;;1.92;;
7843;SDS011;3967;48.702;9.326;2023-07-31T13:39:53;3.25;;;2.03;;
7843;SDS011;3967;48.702;9.326;2023-07-31T13:42:19;2.55;;;1.90;;
7843;SDS011;3967;48.702;9.326;2023-07-31T13:44:46;3.85;;;1.80;;
7843;SDS011;3967;48.702;9.326;2023-07-31T13:47:13;2.58;;;1.95;;
7843;SDS011;3967;48.702;9.326;2023-07-31T13:49:41;4.00;;;1.95;;
7843;SDS011;3967;48.702;9.326;2023-07-31T13:52:09;3.63;;;1.70;;
7843;SDS011;3967;48.702;9.326;2023-07-31T13:54:36;7.60;;;2.60;;
7843;SDS011;3967;48.702;9.326;2023-07-31T13:57:03;2.42;;;1.67;;
7843;SDS011;3967;48.702;9.326;2023-07-31T13:59:30;4.53;;;1.90;;
7843;SDS011;3967;48.702;9.326;2023-07-31T14:01:56;4.68;;;2.00;;
7843;SDS011;3967;48.702;9.326;2023-07-31T14:04:23;4.50;;;1.92;;
7843;SDS011;3967;48.702;9.326;2023-07-31T14:06:50;2.72;;;1.67;;
7843;SDS011;3967;48.702;9.326;2023-07-31T14:09:18;3.30;;;1.90;;
7843;SDS011;3967;48.702;9.326;2023-07-31T14:11:44;3.33;;;1.60;;
7843;SDS011;3967;48.702;9.326;2023-07-31T14:14:11;9.10;;;2.00;;
7843;SDS011;3967;48.702;9.326;2023-07-31T14:16:38;4.57;;;1.70;;
7843;SDS011;3967;48.702;9.326;2023-07-31T14:19:06;4.13;;;2.13;;
7843;SDS011;3967;48.702;9.326;2023-07-31T14:21:34;2.40;;;1.60;;
7843;SDS011;3967;48.702;9.326;2023-07-31T14:24:01;4.28;;;1.80;;
7843;SDS011;3967;48.702;9.326;2023-07-31T14:26:28;1.83;;;1.40;;
7843;SDS011;3967;48.702;9.326;2023-07-31T14:28:55;3.70;;;1.80;;
7843;SDS011;3967;48.702;9.326;2023-07-31T14:31:22;6.20;;;1.65;;
7843;SDS011;3967;48.702;9.326;2023-07-31T14:33:49;8.38;;;2.03;;
7843;SDS011;3967;48.702;9.326;2023-07-31T14:36:16;1.95;;;1.70;;
7843;SDS011;3967;48.702;9.326;2023-07-31T14:38:42;2.80;;;1.63;;
7843;SDS011;3967;48.702;9.326;2023-07-31T14:41:09;3.72;;;1.83;;
7843;SDS011;3967;48.702;9.326;2023-07-31T14:43:36;2.72;;;1.92;;
7843;SDS011;3967;48.702;9.326;2023-07-31T14:46:03;3.08;;;1.85;;
7843;SDS011;3967;48.702;9.326;2023-07-31T14:48:29;2.13;;;1.88;;
7843;SDS011;3967;48.702;9.326;2023-07-31T14:50:56;2.67;;;1.77;;
7843;SDS011;3967;48.702;9.326;2023-07-31T14:53:23;2.75;;;2.00;;
7843;SDS011;3967;48.702;9.326;2023-07-31T14:55:50;3.78;;;1.90;;
7843;SDS011;3967;48.702;9.326;2023-07-31T14:58:17;4.88;;;1.88;;
7843;SDS011;3967;48.702;9.326;2023-07-31T15:00:44;3.90;;;2.08;;
7843;SDS011;3967;48.702;9.326;2023-07-31T15:03:11;4.25;;;1.80;;
7843;SDS011;3967;48.702;9.326;2023-07-31T15:05:38;2.85;;;1.58;;
7843;SDS011;3967;48.702;9.326;2023-07-31T15:08:04;2.05;;;1.70;;
7843;SDS011;3967;48.702;9.326;2023-07-31T15:10:31;3.60;;;1.90;;
7843;SDS011;3967;48.702;9.326;2023-07-31T15:12:58;2.70;;;1.50;;
7843;SDS011;3967;48.702;9.326;2023-07-31T15:15:25;5.25;;;1.88;;
7843;SDS011;3967;48.702;9.326;2023-07-31T15:17:52;3.88;;;1.80;;
7843;SDS011;3967;48.702;9.326;2023-07-31T15:20:19;4.50;;;1.73;;
7843;SDS011;3967;48.702;9.326;2023-07-31T15:22:46;1.95;;;1.80;;
7843;SDS011;3967;48.702;9.326;2023-07-31T15:25:13;1.92;;;1.60;;
7843;SDS011;3967;48.702;9.326;2023-07-31T15:27:39;4.45;;;2.22;;
7843;SDS011;3967;48.702;9.326;2023-07-31T15:30:06;4.20;;;2.22;;
7843;SDS011;3967;48.702;9.326;2023-07-31T15:32:34;2.97;;;1.98;;
7843;SDS011;3967;48.702;9.326;2023-07-31T15:35:03;2.70;;;1.70;;
7843;SDS011;3967;48.702;9.326;2023-07-31T15:37:30;3.20;;;2.30;;
7843;SDS011;3967;48.702;9.326;2023-07-31T15:39:56;2.50;;;2.30;;
7843;SDS011;3967;48.702;9.326;2023-07-31T15:42:23;34.05;;;6.63;;